METAR Data
IDs: Format: Raw Decoded Include TAF

Data at: 0446 UTC 26 Sep 2018

KVUJ 260425Z AUTO 00000KT 10SM CLR 19/19 A3018 RMK AO2 LTG DSNT W AND NW T01910190
KVUJ 260405Z AUTO 00000KT 10SM CLR 20/19 A3018 RMK AO2 LTG DSNT W AND NW T01950192
KVUJ 260345Z AUTO 00000KT 3SM BR CLR 20/19 A3018 RMK AO2 LTG DSNT W T01960193
KVUJ 260325Z AUTO 00000KT 10SM CLR 20/19 A3019 RMK AO2 LTG DSNT W AND NW T01950193
KVUJ 260305Z AUTO 00000KT 10SM CLR 20/20 A3019 RMK AO2 T01970195
KVUJ 260245Z AUTO 00000KT 10SM CLR 20/20 A3019 RMK AO2 LTG DSNT W T02010199
KVUJ 260225Z AUTO 00000KT 10SM CLR 20/20 A3019 RMK AO2 LTG DSNT W AND NW T02030201
KVUJ 260205Z AUTO 00000KT 10SM CLR 20/20 A3019 RMK AO2 LTG DSNT W T02030200
KVUJ 260145Z AUTO 00000KT 10SM CLR 21/20 A3020 RMK AO2 LTG DSNT E W AND NW T02080204
KVUJ 260125Z AUTO 00000KT 10SM CLR 21/21 A3020 RMK AO2 LTG DSNT W T02090205
KVUJ 260105Z AUTO 00000KT 10SM CLR 21/21 A3019 RMK AO2 LTG DSNT W T02100205
KVUJ 260045Z AUTO 00000KT 10SM CLR 22/21 A3019 RMK AO2 T02150205
KVUJ 260025Z AUTO 00000KT 10SM CLR 22/21 A3018 RMK AO2 T02170211
KVUJ 260005Z AUTO 00000KT 10SM CLR 22/21 A3017 RMK AO2 LTG DSNT W AND NW T02200210
KVUJ 252345Z AUTO 00000KT 10SM CLR 23/21 A3017 RMK AO2 LTG DSNT W T02250210
KVUJ 252325Z AUTO 00000KT 10SM CLR 24/21 A3017 RMK AO2 LTG DSNT W T02350209
KVUJ 252305Z AUTO 00000KT 10SM CLR 24/22 A3017 RMK AO2 T02420215
KVUJ 252245Z AUTO 00000KT 10SM CLR 25/22 A3017 RMK AO2 T02470215
KVUJ 252225Z AUTO 00000KT 10SM CLR 26/21 A3017 RMK AO2 LTG DSNT E T02620211
KVUJ 252205Z AUTO 00000KT 10SM CLR 27/21 A3017 RMK AO2 LTG DSNT SE T02740208
KVUJ 252145Z AUTO 00000KT 10SM CLR 28/20 A3017 RMK AO2 T02800200
KVUJ 252125Z AUTO 00000KT 10SM CLR 28/20 A3017 RMK AO2 LTG DSNT NW T02840198
KVUJ 252105Z AUTO 00000KT 10SM CLR 28/20 A3018 RMK AO2 LTG DSNT NW T02830196
KVUJ 252045Z AUTO 00000KT 10SM CLR 29/20 A3019 RMK AO2 LTG DSNT E SE AND NW T02860195
KVUJ 252025Z AUTO 32003KT 10SM CLR 29/19 A3019 RMK AO2 T02860192
KVUJ 252005Z AUTO 00000KT 10SM SCT039 BKN050 28/20 A3019 RMK AO2 LTG DSNT SE T02830198
KVUJ 251945Z AUTO 33004KT 10SM BKN039 BKN050 29/20 A3020 RMK AO2 LTG DSNT E AND W T02900200
KVUJ 251925Z AUTO 00000KT 10SM SCT036 SCT050 29/20 A3021 RMK AO2 T02850199
KVUJ 251905Z AUTO 00000KT 10SM SCT036 SCT120 28/20 A3021 RMK AO2 LTG DSNT SE T02830200
KVUJ 251845Z AUTO 00000KT 10SM SCT050 BKN120 28/20 A3022 RMK AO2 T02830197
KVUJ 251825Z AUTO 15003KT 10SM SCT050 BKN120 28/20 A3022 RMK AO2 LTG DSNT SE T02790200
KVUJ 251805Z AUTO 03003KT 10SM SCT120 28/20 A3023 RMK AO2 LTG DSNT W T02750199
KVUJ 251745Z AUTO 00000KT 10SM SCT030 SCT046 28/20 A3024 RMK AO2 LTG DSNT E T02760199
KVUJ 251725Z AUTO 00000KT 10SM SCT028 SCT033 BKN046 27/20 A3025 RMK AO2 LTG DSNT NW T02730204
KVUJ 251705Z AUTO 00000KT 10SM BKN029 OVC034 26/20 A3026 RMK AO2 T02610203
KVUJ 251645Z AUTO 00000KT 10SM OVC033 26/20 A3026 RMK AO2 LTG DSNT SE T02590204
KVUJ 251625Z AUTO 00000KT 10SM BKN033 BKN041 26/21 A3027 RMK AO2 LTG DSNT NE T02570205
KVUJ 251605Z AUTO 00000KT 10SM SCT022 BKN031 BKN041 26/21 A3027 RMK AO2 T02550205
KVUJ 251545Z AUTO 00000KT 10SM BKN022 OVC031 25/20 A3028 RMK AO2 LTG DSNT NW T02490204
KVUJ 251525Z AUTO 00000KT 10SM BKN018 BKN024 OVC031 25/21 A3028 RMK AO2 LTG DSNT E SE AND W T02490212
KVUJ 251505Z AUTO 00000KT 10SM OVC016 24/21 A3029 RMK AO2 LTG DSNT SE AND W T02430210
KVUJ 251445Z AUTO 08003KT 10SM OVC012 24/21 A3029 RMK AO2 T02390211
KVUJ 251425Z AUTO 00000KT 10SM OVC008 24/21 A3029 RMK AO2 LTG DSNT SE T02380212
KVUJ 251405Z AUTO 08004KT 10SM OVC006 23/21 A3029 RMK AO2 LTG DSNT W T02260209
KVUJ 251340Z AUTO 08007KT 10SM OVC006 22/21 A3029 RMK AO2 LTG DSNT NE AND E T02200207
KVUJ 251325Z AUTO 09005KT 10SM VCTS OVC004 22/21 A3028 RMK AO2 LTG DSNT E AND W T02160206
KVUJ 251305Z AUTO 10005KT 10SM OVC004 21/21 A3028 RMK AO2 T02120205
KVUJ 251240Z AUTO 10003KT 10SM OVC004 21/21 A3028 RMK AO2 T02120205
KVUJ 251225Z AUTO 07004KT 10SM OVC004 21/21 A3027 RMK AO2 T02120206
KVUJ 251205Z AUTO 05003KT 10SM OVC004 21/21 A3027 RMK AO2 T02090207
KVUJ 251145Z AUTO 06003KT 7SM OVC002 21/21 A3027 RMK AO2 LTG DSNT SE T02060206
KVUJ 251125Z AUTO 00000KT 2SM BR OVC002 21/21 A3026 RMK AO2 LTG DSNT E T02050205
KVUJ 251105Z AUTO 00000KT 2 1/2SM BR OVC002 21/20 A3025 RMK AO2 LTG DSNT NW T02050203
KVUJ 251045Z AUTO 00000KT 2SM BR OVC002 20/20 A3025 RMK AO2 LTG DSNT NW T02030202
KVUJ 251025Z AUTO 00000KT 2 1/2SM BR OVC004 20/20 A3025 RMK AO2 LTG DSNT E SE AND NW T02030202
KVUJ 251005Z AUTO 00000KT 4SM BR OVC004 20/20 A3025 RMK AO2 LTG DSNT SW AND W T02030201
KVUJ 250945Z AUTO 02003KT 7SM OVC004 21/20 A3024 RMK AO2 LTG DSNT SE AND NW T02050201
KVUJ 250925Z AUTO 05004KT 10SM OVC004 21/20 A3024 RMK AO2 LTG DSNT W AND NW T02050200
KVUJ 250905Z AUTO 06003KT 10SM OVC004 20/20 A3025 RMK AO2 LTG DSNT SE AND SW T02030200
KVUJ 250845Z AUTO 05005KT 10SM OVC004 20/20 A3025 RMK AO2 LTG DSNT E T02040199
KVUJ 250825Z AUTO 04004KT 10SM OVC006 21/20 A3025 RMK AO2 T02050200
KVUJ 250805Z AUTO 04004KT 10SM OVC006 21/20 A3025 RMK AO2 LTG DSNT E T02050200
KVUJ 250745Z AUTO 05003KT 10SM OVC006 21/20 A3026 RMK AO2 T02050198
KVUJ 250725Z AUTO 04003KT 10SM OVC006 21/20 A3027 RMK AO2 LTG DSNT E AND SW T02050197
KVUJ 250705Z AUTO 05004KT 10SM OVC006 21/20 A3027 RMK AO2 LTG DSNT E T02050197
KVUJ 250645Z AUTO 06003KT 10SM OVC006 21/20 A3027 RMK AO2 LTG DSNT E AND SE T02050196
KVUJ 250625Z AUTO 00000KT 10SM OVC006 21/20 A3028 RMK AO2 LTG DSNT E SE AND NW T02050196
KVUJ 250605Z AUTO 04005KT 10SM OVC006 20/20 A3028 RMK AO2 LTG DSNT NW T02040195
KVUJ 250545Z AUTO 06005KT 10SM OVC008 21/20 A3028 RMK AO2 T02050195
KVUJ 250525Z AUTO 06004KT 10SM OVC008 21/19 A3029 RMK AO2 T02050194
KVUJ 250505Z AUTO 05003KT 10SM OVC008 21/19 A3029 RMK AO2 T02050193
KVUJ 250445Z AUTO 04004KT 10SM OVC008 20/19 A3029 RMK AO2 T02030192
KVUJ 250425Z AUTO 03003KT 10SM BKN010 OVC027 20/19 A3029 RMK AO2 T02020192
KVUJ 250405Z AUTO 03005KT 10SM BKN010 OVC027 21/19 A3029 RMK AO2 T02050193
KVUJ 250345Z AUTO 00000KT 10SM OVC010 21/19 A3030 RMK AO2 T02050193
KVUJ 250325Z AUTO 04005KT 10SM OVC010 21/19 A3030 RMK AO2 T02050193
KVUJ 250305Z AUTO 04005KT 10SM OVC010 21/19 A3030 RMK AO2 LTG DSNT E T02050192
KVUJ 250245Z AUTO 04004KT 10SM OVC010 21/19 A3029 RMK AO2 T02050192
KVUJ 250225Z AUTO 05006KT 10SM OVC010 21/19 A3029 RMK AO2 T02050193
KVUJ 250205Z AUTO 04006KT 10SM OVC010 21/19 A3029 RMK AO2 T02050193
KVUJ 250145Z AUTO 04004KT 10SM OVC010 21/19 A3029 RMK AO2 T02060194
KVUJ 250125Z AUTO 03003KT 10SM BKN010 OVC095 21/20 A3028 RMK AO2 T02080195
KVUJ 250105Z AUTO 04006KT 10SM SCT010 OVC095 21/20 A3027 RMK AO2 T02090195
KVUJ 250045Z AUTO 04007KT 10SM OVC095 21/19 A3027 RMK AO2 T02100194
KVUJ 250025Z AUTO 04007KT 10SM OVC095 21/19 A3026 RMK AO2 T02110194
KVUJ 250005Z AUTO 05008KT 10SM BKN095 21/19 A3026 RMK AO2 T02110193
KVUJ 242345Z AUTO 04009KT 10SM SCT014 SCT026 SCT031 21/20 A3025 RMK AO2 T02120195
KVUJ 242325Z AUTO 04005KT 10SM SCT016 BKN026 BKN031 21/20 A3026 RMK AO2 T02140196
KVUJ 242305Z AUTO 04006KT 10SM BKN016 BKN026 22/20 A3025 RMK AO2 LTG DSNT SE T02180197
KVUJ 242245Z AUTO 03006KT 10SM SCT018 BKN026 23/20 A3025 RMK AO2 T02250197
KVUJ 242225Z AUTO 03007KT 10SM SCT018 SCT033 23/20 A3025 RMK AO2 LTG DSNT SW T02310197
KVUJ 242205Z AUTO 04007KT 10SM SCT025 SCT033 24/20 A3025 RMK AO2 LTG DSNT SE AND SW T02360196
KVUJ 242145Z AUTO 04007KT 10SM SCT027 BKN035 24/20 A3024 RMK AO2 T02360195
KVUJ 242125Z AUTO 04007KT 10SM SCT021 BKN030 OVC036 24/20 A3024 RMK AO2 LTG DSNT SW T02440196
KVUJ 242105Z AUTO 03007KT 10SM SCT021 BKN028 24/20 A3024 RMK AO2 T02410195
KVUJ 242045Z AUTO 04005KT 10SM SCT021 BKN027 24/20 A3024 RMK AO2 LTG DSNT E AND SW T02380195
KVUJ 242025Z AUTO 06006KT 10SM BKN020 OVC025 24/19 A3025 RMK AO2 T02370194
KVUJ 242005Z AUTO 01006KT 10SM BKN018 OVC025 24/20 A3025 RMK AO2 LTG DSNT SE AND W T02350195
KVUJ 241945Z AUTO 05007KT 10SM BKN016 OVC023 23/19 A3026 RMK AO2 LTG DSNT SW AND W T02330194
KVUJ 241925Z AUTO 05005KT 10SM BKN016 OVC023 23/20 A3026 RMK AO2 LTG DSNT SE T02330198
KVUJ 241905Z AUTO 06005KT 10SM BKN014 OVC020 23/20 A3027 RMK AO2 LTG DSNT E T02260196
KVUJ 241845Z AUTO 08004KT 10SM OVC014 22/19 A3027 RMK AO2 T02240193
KVUJ 241825Z AUTO 06006KT 10SM OVC012 22/19 A3028 RMK AO2 LTG DSNT W T02240194
KVUJ 241805Z AUTO 08006KT 10SM OVC012 22/19 A3029 RMK AO2 LTG DSNT E T02230194
KVUJ 241745Z AUTO 04005KT 10SM OVC010 22/19 A3029 RMK AO2 T02200192
KVUJ 241725Z AUTO 07006KT 10SM OVC010 22/19 A3030 RMK AO2 LTG DSNT E T02160189
KVUJ 241705Z AUTO 07005KT 10SM OVC010 22/19 A3030 RMK AO2 T02150190